sensor_id;sensor_type;location;lat;lon;timestamp;pressure;altitude;pressure_sealevel;temperature;humidity
47815;BME280;33579;50.058;18.130;2023-03-25T00:00:33;98200.53;;;12.48;100.00
47815;BME280;33579;50.058;18.130;2023-03-25T00:01:35;98205.13;;;12.46;100.00
47815;BME280;33579;50.058;18.130;2023-03-25T00:02:36;98211.09;;;12.48;100.00
47815;BME280;33579;50.058;18.130;2023-03-25T00:03:39;98209.91;;;12.51;100.00
47815;BME280;33579;50.058;18.130;2023-03-25T00:04:41;98208.31;;;12.42;100.00
47815;BME280;33579;50.058;18.130;2023-03-25T00:05:43;98215.53;;;12.40;100.00
47815;BME280;33579;50.058;18.130;2023-03-25T00:06:44;98216.50;;;12.47;100.00
47815;BME280;33579;50.058;18.130;2023-03-25T00:07:49;98214.03;;;12.45;100.00
47815;BME280;33579;50.058;18.130;2023-03-25T00:08:51;98217.50;;;12.46;100.00
47815;BME280;33579;50.058;18.130;2023-03-25T00:09:53;98211.75;;;12.42;100.00
47815;BME280;33579;50.058;18.130;2023-03-25T00:10:57;98210.09;;;12.41;100.00
47815;BME280;33579;50.058;18.130;2023-03-25T00:11:58;98200.56;;;12.32;100.00
47815;BME280;33579;50.058;18.130;2023-03-25T00:13:00;98207.97;;;12.36;100.00
47815;BME280;33579;50.058;18.130;2023-03-25T00:14:02;98193.50;;;12.24;100.00
47815;BME280;33579;50.058;18.130;2023-03-25T00:15:05;98211.59;;;12.35;100.00
47815;BME280;33579;50.058;18.130;2023-03-25T00:16:07;98207.31;;;12.34;100.00
47815;BME280;33579;50.058;18.130;2023-03-25T00:17:09;98202.88;;;12.35;100.00
47815;BME280;33579;50.058;18.130;2023-03-25T00:18:11;98199.75;;;12.31;100.00
47815;BME280;33579;50.058;18.130;2023-03-25T00:19:16;98195.78;;;12.27;100.00
47815;BME280;33579;50.058;18.130;2023-03-25T00:20:17;98191.34;;;12.28;100.00
47815;BME280;33579;50.058;18.130;2023-03-25T00:21:19;98184.25;;;12.28;100.00
47815;BME280;33579;50.058;18.130;2023-03-25T00:22:21;98185.94;;;12.29;100.00
47815;BME280;33579;50.058;18.130;2023-03-25T00:23:23;98188.56;;;12.29;100.00
47815;BME280;33579;50.058;18.130;2023-03-25T00:24:24;98187.88;;;12.27;100.00
47815;BME280;33579;50.058;18.130;2023-03-25T00:25:26;98189.53;;;12.28;100.00
47815;BME280;33579;50.058;18.130;2023-03-25T00:26:27;98201.56;;;12.31;100.00
47815;BME280;33579;50.058;18.130;2023-03-25T00:27:29;98190.00;;;12.32;100.00
47815;BME280;33579;50.058;18.130;2023-03-25T00:28:33;98198.41;;;12.35;100.00
47815;BME280;33579;50.058;18.130;2023-03-25T00:29:36;98195.13;;;12.33;100.00
47815;BME280;33579;50.058;18.130;2023-03-25T00:30:37;98195.28;;;12.32;100.00
47815;BME280;33579;50.058;18.130;2023-03-25T00:31:39;98191.34;;;12.36;100.00
47815;BME280;33579;50.058;18.130;2023-03-25T00:32:42;98188.34;;;12.39;100.00
47815;BME280;33579;50.058;18.130;2023-03-25T00:33:43;98191.28;;;12.44;100.00
47815;BME280;33579;50.058;18.130;2023-03-25T00:34:45;98194.72;;;12.53;100.00
47815;BME280;33579;50.058;18.130;2023-03-25T00:35:50;98198.84;;;12.56;100.00
47815;BME280;33579;50.058;18.130;2023-03-25T00:36:52;98193.56;;;12.56;100.00
47815;BME280;33579;50.058;18.130;2023-03-25T00:37:54;98194.88;;;12.60;100.00
47815;BME280;33579;50.058;18.130;2023-03-25T00:38:56;98189.91;;;12.65;100.00
47815;BME280;33579;50.058;18.130;2023-03-25T00:39:57;98188.56;;;12.69;100.00
47815;BME280;33579;50.058;18.130;2023-03-25T00:42:10;98202.72;;;12.76;100.00
47815;BME280;33579;50.058;18.130;2023-03-25T00:43:12;98200.25;;;12.75;100.00
47815;BME280;33579;50.058;18.130;2023-03-25T00:44:13;98203.72;;;12.75;100.00
47815;BME280;33579;50.058;18.130;2023-03-25T00:45:15;98203.38;;;12.70;100.00
47815;BME280;33579;50.058;18.130;2023-03-25T00:46:17;98200.59;;;12.72;100.00
47815;BME280;33579;50.058;18.130;2023-03-25T00:47:19;98200.25;;;12.75;100.00
47815;BME280;33579;50.058;18.130;2023-03-25T00:48:21;98197.59;;;12.75;100.00
47815;BME280;33579;50.058;18.130;2023-03-25T00:49:23;98189.16;;;12.79;100.00
47815;BME280;33579;50.058;18.130;2023-03-25T00:50:24;98203.63;;;12.92;100.00
47815;BME280;33579;50.058;18.130;2023-03-25T00:51:27;98200.94;;;13.00;100.00
47815;BME280;33579;50.058;18.130;2023-03-25T00:52:29;98195.94;;;13.05;100.00
47815;BME280;33579;50.058;18.130;2023-03-25T00:53:30;98196.31;;;13.02;100.00
47815;BME280;33579;50.058;18.130;2023-03-25T00:54:32;98197.41;;;12.85;100.00
47815;BME280;33579;50.058;18.130;2023-03-25T00:55:33;98192.16;;;12.76;100.00
47815;BME280;33579;50.058;18.130;2023-03-25T00:56:35;98192.69;;;12.63;100.00
47815;BME280;33579;50.058;18.130;2023-03-25T00:57:37;98193.88;;;12.61;100.00
47815;BME280;33579;50.058;18.130;2023-03-25T00:58:39;98197.81;;;12.65;100.00
47815;BME280;33579;50.058;18.130;2023-03-25T00:59:40;98196.34;;;12.62;100.00
47815;BME280;33579;50.058;18.130;2023-03-25T01:00:42;98201.47;;;12.56;100.00
47815;BME280;33579;50.058;18.130;2023-03-25T01:01:43;98210.88;;;12.58;100.00
47815;BME280;33579;50.058;18.130;2023-03-25T01:02:47;98206.81;;;12.47;100.00
47815;BME280;33579;50.058;18.130;2023-03-25T01:03:50;98213.88;;;12.47;100.00
47815;BME280;33579;50.058;18.130;2023-03-25T01:04:52;98207.44;;;12.49;100.00
47815;BME280;33579;50.058;18.130;2023-03-25T01:05:54;98213.72;;;12.48;100.00
47815;BME280;33579;50.058;18.130;2023-03-25T01:06:56;98213.03;;;12.46;100.00
47815;BME280;33579;50.058;18.130;2023-03-25T01:07:57;98213.53;;;12.50;100.00
47815;BME280;33579;50.058;18.130;2023-03-25T01:09:02;98209.59;;;12.46;100.00
47815;BME280;33579;50.058;18.130;2023-03-25T01:10:05;98210.25;;;12.48;100.00
47815;BME280;33579;50.058;18.130;2023-03-25T01:11:17;98207.97;;;12.45;100.00
47815;BME280;33579;50.058;18.130;2023-03-25T01:12:19;98204.81;;;12.41;100.00
47815;BME280;33579;50.058;18.130;2023-03-25T01:13:21;98218.31;;;12.55;100.00
47815;BME280;33579;50.058;18.130;2023-03-25T01:14:24;98218.31;;;12.55;100.00
47815;BME280;33579;50.058;18.130;2023-03-25T01:15:25;98213.03;;;12.55;100.00
47815;BME280;33579;50.058;18.130;2023-03-25T01:16:27;98213.84;;;12.55;100.00
47815;BME280;33579;50.058;18.130;2023-03-25T01:17:29;98221.78;;;12.55;100.00
47815;BME280;33579;50.058;18.130;2023-03-25T01:18:31;98219.78;;;12.57;100.00
47815;BME280;33579;50.058;18.130;2023-03-25T01:19:33;98224.38;;;12.63;100.00
47815;BME280;33579;50.058;18.130;2023-03-25T01:20:34;98226.84;;;12.65;100.00
47815;BME280;33579;50.058;18.130;2023-03-25T01:21:36;98220.44;;;12.59;100.00
47815;BME280;33579;50.058;18.130;2023-03-25T01:22:38;98222.22;;;12.59;100.00
47815;BME280;33579;50.058;18.130;2023-03-25T01:23:39;98223.72;;;12.61;100.00
47815;BME280;33579;50.058;18.130;2023-03-25T01:24:41;98226.34;;;12.61;100.00
47815;BME280;33579;50.058;18.130;2023-03-25T01:25:43;98220.28;;;12.61;100.00
47815;BME280;33579;50.058;18.130;2023-03-25T01:26:44;98224.69;;;12.69;100.00
47815;BME280;33579;50.058;18.130;2023-03-25T01:27:46;98213.44;;;12.75;100.00
47815;BME280;33579;50.058;18.130;2023-03-25T01:28:48;98215.56;;;12.79;100.00
47815;BME280;33579;50.058;18.130;2023-03-25T01:29:49;98215.41;;;12.81;100.00
47815;BME280;33579;50.058;18.130;2023-03-25T01:30:51;98212.56;;;12.83;100.00
47815;BME280;33579;50.058;18.130;2023-03-25T01:31:52;98210.06;;;12.89;100.00
47815;BME280;33579;50.058;18.130;2023-03-25T01:32:54;98197.97;;;12.95;100.00
47815;BME280;33579;50.058;18.130;2023-03-25T01:33:56;98197.34;;;12.93;100.00
47815;BME280;33579;50.058;18.130;2023-03-25T01:34:59;98197.69;;;12.90;100.00
47815;BME280;33579;50.058;18.130;2023-03-25T01:36:00;98203.31;;;12.87;100.00
47815;BME280;33579;50.058;18.130;2023-03-25T01:37:02;98207.75;;;12.95;100.00
47815;BME280;33579;50.058;18.130;2023-03-25T01:38:04;98202.09;;;12.98;100.00
47815;BME280;33579;50.058;18.130;2023-03-25T01:39:07;98200.44;;;13.05;100.00
47815;BME280;33579;50.058;18.130;2023-03-25T01:40:16;98213.28;;;13.08;100.00
47815;BME280;33579;50.058;18.130;2023-03-25T01:41:18;98200.88;;;13.08;100.00
47815;BME280;33579;50.058;18.130;2023-03-25T01:42:20;98202.34;;;13.11;100.00
47815;BME280;33579;50.058;18.130;2023-03-25T01:43:22;98206.81;;;13.11;100.00
47815;BME280;33579;50.058;18.130;2023-03-25T01:45:28;98197.38;;;13.16;100.00
47815;BME280;33579;50.058;18.130;2023-03-25T01:46:30;98186.81;;;13.16;100.00
47815;BME280;33579;50.058;18.130;2023-03-25T01:47:32;98188.78;;;13.14;100.00
47815;BME280;33579;50.058;18.130;2023-03-25T01:48:36;98193.28;;;13.14;100.00
47815;BME280;33579;50.058;18.130;2023-03-25T01:49:41;98190.09;;;13.18;100.00
47815;BME280;33579;50.058;18.130;2023-03-25T01:50:59;98189.28;;;13.18;100.00
47815;BME280;33579;50.058;18.130;2023-03-25T01:52:06;98187.00;;;13.15;100.00
47815;BME280;33579;50.058;18.130;2023-03-25T01:53:09;98183.06;;;13.11;100.00
47815;BME280;33579;50.058;18.130;2023-03-25T01:54:12;98197.94;;;13.03;100.00
47815;BME280;33579;50.058;18.130;2023-03-25T01:55:14;98195.56;;;12.85;100.00
47815;BME280;33579;50.058;18.130;2023-03-25T01:56:21;98195.19;;;12.65;100.00
47815;BME280;33579;50.058;18.130;2023-03-25T01:57:24;98209.03;;;12.59;100.00
47815;BME280;33579;50.058;18.130;2023-03-25T01:58:28;98207.91;;;12.53;100.00
47815;BME280;33579;50.058;18.130;2023-03-25T01:59:31;98206.59;;;12.57;100.00
47815;BME280;33579;50.058;18.130;2023-03-25T02:00:33;98213.16;;;12.61;100.00
47815;BME280;33579;50.058;18.130;2023-03-25T02:01:34;98208.06;;;12.60;100.00
47815;BME280;33579;50.058;18.130;2023-03-25T02:02:36;98219.56;;;12.67;100.00
47815;BME280;33579;50.058;18.130;2023-03-25T02:03:39;98222.69;;;12.71;100.00
47815;BME280;33579;50.058;18.130;2023-03-25T02:04:59;98218.09;;;12.64;100.00
47815;BME280;33579;50.058;18.130;2023-03-25T02:07:06;98214.72;;;12.39;100.00
47815;BME280;33579;50.058;18.130;2023-03-25T02:08:07;98215.25;;;12.26;100.00
47815;BME280;33579;50.058;18.130;2023-03-25T02:09:11;98216.94;;;12.19;100.00
47815;BME280;33579;50.058;18.130;2023-03-25T02:10:15;98216.09;;;12.18;100.00
47815;BME280;33579;50.058;18.130;2023-03-25T02:11:17;98210.84;;;12.10;100.00
47815;BME280;33579;50.058;18.130;2023-03-25T02:12:19;98208.88;;;12.12;100.00
47815;BME280;33579;50.058;18.130;2023-03-25T02:13:20;98218.88;;;12.25;100.00
47815;BME280;33579;50.058;18.130;2023-03-25T02:14:29;98213.59;;;12.33;100.00
47815;BME280;33579;50.058;18.130;2023-03-25T02:15:42;98220.81;;;12.40;100.00
47815;BME280;33579;50.058;18.130;2023-03-25T02:18:13;98226.78;;;12.42;100.00
47815;BME280;33579;50.058;18.130;2023-03-25T02:23:49;98197.91;;;12.40;100.00
47815;BME280;33579;50.058;18.130;2023-03-25T02:27:43;98202.91;;;12.18;100.00
47815;BME280;33579;50.058;18.130;2023-03-25T02:29:36;98218.91;;;12.17;100.00
47815;BME280;33579;50.058;18.130;2023-03-25T02:31:57;98216.13;;;12.10;100.00
47815;BME280;33579;50.058;18.130;2023-03-25T02:40:05;98226.31;;;11.72;100.00
47815;BME280;33579;50.058;18.130;2023-03-25T02:41:31;98230.13;;;11.69;100.00
47815;BME280;33579;50.058;18.130;2023-03-25T02:43:09;98229.28;;;11.60;100.00
47815;BME280;33579;50.058;18.130;2023-03-25T02:44:20;98221.56;;;11.50;100.00
47815;BME280;33579;50.058;18.130;2023-03-25T02:45:29;98219.41;;;11.46;100.00
47815;BME280;33579;50.058;18.130;2023-03-25T02:46:32;98227.63;;;11.43;100.00
47815;BME280;33579;50.058;18.130;2023-03-25T02:47:38;98239.50;;;11.38;100.00
47815;BME280;33579;50.058;18.130;2023-03-25T02:49:00;98236.69;;;11.40;100.00
47815;BME280;33579;50.058;18.130;2023-03-25T02:50:10;98233.06;;;11.33;100.00
47815;BME280;33579;50.058;18.130;2023-03-25T02:51:23;98237.84;;;11.37;100.00
47815;BME280;33579;50.058;18.130;2023-03-25T02:52:29;98242.44;;;11.35;100.00
47815;BME280;33579;50.058;18.130;2023-03-25T02:53:35;98243.13;;;11.37;100.00
47815;BME280;33579;50.058;18.130;2023-03-25T02:54:40;98248.19;;;11.39;100.00
47815;BME280;33579;50.058;18.130;2023-03-25T02:55:44;98243.44;;;11.43;100.00
47815;BME280;33579;50.058;18.130;2023-03-25T02:56:48;98237.16;;;11.35;100.00
47815;BME280;33579;50.058;18.130;2023-03-25T02:57:52;98244.44;;;11.42;100.00
47815;BME280;33579;50.058;18.130;2023-03-25T02:58:55;98237.84;;;11.46;100.00
47815;BME280;33579;50.058;18.130;2023-03-25T02:59:58;98249.03;;;11.48;100.00
47815;BME280;33579;50.058;18.130;2023-03-25T03:01:02;98249.72;;;11.50;100.00
47815;BME280;33579;50.058;18.130;2023-03-25T03:02:07;98257.28;;;11.53;100.00
47815;BME280;33579;50.058;18.130;2023-03-25T03:03:09;98259.59;;;11.56;100.00
47815;BME280;33579;50.058;18.130;2023-03-25T03:04:12;98254.50;;;11.55;100.00
47815;BME280;33579;50.058;18.130;2023-03-25T03:05:25;98244.09;;;11.45;100.00
47815;BME280;33579;50.058;18.130;2023-03-25T03:06:28;98255.63;;;11.52;100.00
47815;BME280;33579;50.058;18.130;2023-03-25T03:07:32;98255.81;;;11.59;100.00
47815;BME280;33579;50.058;18.130;2023-03-25T03:08:48;98252.69;;;11.63;100.00
47815;BME280;33579;50.058;18.130;2023-03-25T03:09:59;98260.75;;;11.62;100.00
47815;BME280;33579;50.058;18.130;2023-03-25T03:11:14;98258.09;;;11.62;100.00
47815;BME280;33579;50.058;18.130;2023-03-25T03:15:26;98259.78;;;11.55;100.00
47815;BME280;33579;50.058;18.130;2023-03-25T03:18:26;98260.09;;;11.60;100.00
47815;BME280;33579;50.058;18.130;2023-03-25T03:19:37;98256.13;;;11.64;100.00
47815;BME280;33579;50.058;18.130;2023-03-25T03:20:56;98254.66;;;11.70;100.00
47815;BME280;33579;50.058;18.130;2023-03-25T03:22:06;98248.22;;;11.64;100.00
47815;BME280;33579;50.058;18.130;2023-03-25T03:23:31;98251.22;;;11.69;100.00
47815;BME280;33579;50.058;18.130;2023-03-25T03:24:38;98248.56;;;11.77;100.00
47815;BME280;33579;50.058;18.130;2023-03-25T03:29:37;98249.41;;;11.86;100.00
47815;BME280;33579;50.058;18.130;2023-03-25T03:33:17;98247.41;;;11.97;100.00
47815;BME280;33579;50.058;18.130;2023-03-25T03:34:30;98256.47;;;12.02;100.00
47815;BME280;33579;50.058;18.130;2023-03-25T03:35:42;98251.91;;;12.04;100.00
47815;BME280;33579;50.058;18.130;2023-03-25T03:36:49;98250.22;;;11.95;100.00
47815;BME280;33579;50.058;18.130;2023-03-25T03:37:59;98255.97;;;11.82;100.00
47815;BME280;33579;50.058;18.130;2023-03-25T03:39:07;98253.00;;;11.69;100.00
47815;BME280;33579;50.058;18.130;2023-03-25T03:40:16;98253.16;;;11.50;100.00
47815;BME280;33579;50.058;18.130;2023-03-25T03:41:19;98255.28;;;11.47;100.00
47815;BME280;33579;50.058;18.130;2023-03-25T03:45:00;98256.59;;;11.26;100.00
47815;BME280;33579;50.058;18.130;2023-03-25T03:46:19;98252.13;;;11.18;100.00
47815;BME280;33579;50.058;18.130;2023-03-25T03:47:25;98259.84;;;11.12;100.00
47815;BME280;33579;50.058;18.130;2023-03-25T03:48:35;98256.84;;;11.06;100.00
47815;BME280;33579;50.058;18.130;2023-03-25T03:50:04;98248.63;;;11.01;100.00
47815;BME280;33579;50.058;18.130;2023-03-25T03:51:15;98250.59;;;10.99;100.00
47815;BME280;33579;50.058;18.130;2023-03-25T03:52:27;98253.53;;;10.96;100.00
47815;BME280;33579;50.058;18.130;2023-03-25T03:53:36;98247.28;;;10.97;100.00
47815;BME280;33579;50.058;18.130;2023-03-25T03:54:57;98238.06;;;10.93;100.00
47815;BME280;33579;50.058;18.130;2023-03-25T03:57:17;98238.06;;;10.93;100.00
47815;BME280;33579;50.058;18.130;2023-03-25T03:58:23;98244.34;;;11.00;100.00
47815;BME280;33579;50.058;18.130;2023-03-25T03:59:49;98255.38;;;11.12;100.00
47815;BME280;33579;50.058;18.130;2023-03-25T04:03:31;98267.13;;;11.43;100.00
47815;BME280;33579;50.058;18.130;2023-03-25T04:04:34;98267.47;;;11.48;100.00
47815;BME280;33579;50.058;18.130;2023-03-25T04:05:36;98265.53;;;11.50;100.00
47815;BME280;33579;50.058;18.130;2023-03-25T04:06:42;98272.06;;;11.46;100.00
47815;BME280;33579;50.058;18.130;2023-03-25T04:07:52;98274.53;;;11.39;100.00
47815;BME280;33579;50.058;18.130;2023-03-25T04:08:59;98263.50;;;11.27;100.00
47815;BME280;33579;50.058;18.130;2023-03-25T04:10:11;98255.09;;;11.23;100.00
47815;BME280;33579;50.058;18.130;2023-03-25T04:11:15;98257.88;;;11.22;100.00
47815;BME280;33579;50.058;18.130;2023-03-25T04:12:26;98248.31;;;11.21;100.00
47815;BME280;33579;50.058;18.130;2023-03-25T04:13:32;98244.56;;;11.23;100.00
47815;BME280;33579;50.058;18.130;2023-03-25T04:14:36;98249.00;;;11.23;100.00
47815;BME280;33579;50.058;18.130;2023-03-25T04:15:39;98247.34;;;11.22;100.00
47815;BME280;33579;50.058;18.130;2023-03-25T04:16:41;98247.84;;;11.25;100.00
47815;BME280;33579;50.058;18.130;2023-03-25T04:17:43;98253.13;;;11.25;100.00
47815;BME280;33579;50.058;18.130;2023-03-25T04:18:45;98253.63;;;11.29;100.00
47815;BME280;33579;50.058;18.130;2023-03-25T04:19:46;98252.50;;;11.32;100.00
47815;BME280;33579;50.058;18.130;2023-03-25T04:20:48;98250.03;;;11.38;100.00
47815;BME280;33579;50.058;18.130;2023-03-25T04:21:49;98246.41;;;11.39;100.00
47815;BME280;33579;50.058;18.130;2023-03-25T04:22:51;98259.72;;;11.38;100.00
47815;BME280;33579;50.058;18.130;2023-03-25T04:23:53;98258.56;;;11.32;100.00
47815;BME280;33579;50.058;18.130;2023-03-25T04:24:54;98263.00;;;11.23;100.00
47815;BME280;33579;50.058;18.130;2023-03-25T04:25:56;98270.06;;;11.15;100.00
47815;BME280;33579;50.058;18.130;2023-03-25T04:26:58;98262.63;;;11.10;100.00
47815;BME280;33579;50.058;18.130;2023-03-25T04:28:00;98272.66;;;11.06;100.00
47815;BME280;33579;50.058;18.130;2023-03-25T04:29:05;98270.00;;;11.06;100.00
47815;BME280;33579;50.058;18.130;2023-03-25T04:30:07;98266.88;;;11.03;100.00
47815;BME280;33579;50.058;18.130;2023-03-25T04:31:14;98264.41;;;11.01;100.00
47815;BME280;33579;50.058;18.130;2023-03-25T04:32:16;98264.44;;;11.09;100.00
47815;BME280;33579;50.058;18.130;2023-03-25T04:33:18;98263.28;;;11.12;100.00
47815;BME280;33579;50.058;18.130;2023-03-25T04:34:20;98268.59;;;11.20;100.00
47815;BME280;33579;50.058;18.130;2023-03-25T04:35:21;98262.34;;;11.21;100.00
47815;BME280;33579;50.058;18.130;2023-03-25T04:36:24;98276.47;;;11.20;100.00
47815;BME280;33579;50.058;18.130;2023-03-25T04:37:26;98271.03;;;11.14;100.00
47815;BME280;33579;50.058;18.130;2023-03-25T04:38:28;98270.66;;;11.08;100.00
47815;BME280;33579;50.058;18.130;2023-03-25T04:39:30;98274.75;;;10.94;100.00
47815;BME280;33579;50.058;18.130;2023-03-25T04:40:32;98278.59;;;10.74;100.00
47815;BME280;33579;50.058;18.130;2023-03-25T04:41:34;98281.47;;;10.54;100.00
47815;BME280;33579;50.058;18.130;2023-03-25T04:42:35;98278.63;;;10.47;100.00
47815;BME280;33579;50.058;18.130;2023-03-25T04:43:37;98288.81;;;10.42;100.00
47815;BME280;33579;50.058;18.130;2023-03-25T04:44:38;98284.34;;;10.43;100.00
47815;BME280;33579;50.058;18.130;2023-03-25T04:45:41;98280.06;;;10.42;100.00
47815;BME280;33579;50.058;18.130;2023-03-25T04:46:42;98277.88;;;10.37;100.00
47815;BME280;33579;50.058;18.130;2023-03-25T04:47:47;98288.50;;;10.27;100.00
47815;BME280;33579;50.058;18.130;2023-03-25T04:48:49;98286.28;;;10.14;100.00
47815;BME280;33579;50.058;18.130;2023-03-25T04:49:50;98283.59;;;10.06;100.00
47815;BME280;33579;50.058;18.130;2023-03-25T04:50:52;98287.81;;;9.98;100.00
47815;BME280;33579;50.058;18.130;2023-03-25T04:51:54;98283.69;;;9.96;100.00
47815;BME280;33579;50.058;18.130;2023-03-25T04:52:56;98287.59;;;9.92;100.00
47815;BME280;33579;50.058;18.130;2023-03-25T04:53:58;98291.81;;;9.84;100.00
47815;BME280;33579;50.058;18.130;2023-03-25T04:54:59;98291.72;;;9.76;100.00
47815;BME280;33579;50.058;18.130;2023-03-25T04:56:01;98289.94;;;9.77;100.00
47815;BME280;33579;50.058;18.130;2023-03-25T04:57:03;98282.88;;;9.77;100.00
47815;BME280;33579;50.058;18.130;2023-03-25T04:58:05;98280.88;;;9.71;100.00
47815;BME280;33579;50.058;18.130;2023-03-25T04:59:06;98281.75;;;9.80;100.00
47815;BME280;33579;50.058;18.130;2023-03-25T05:00:08;98278.94;;;9.81;100.00
47815;BME280;33579;50.058;18.130;2023-03-25T05:01:23;98288.28;;;9.76;100.00
47815;BME280;33579;50.058;18.130;2023-03-25T05:02:26;98288.44;;;9.74;100.00
47815;BME280;33579;50.058;18.130;2023-03-25T05:03:28;98284.69;;;9.77;100.00
47815;BME280;33579;50.058;18.130;2023-03-25T05:04:30;98277.94;;;9.74;100.00
47815;BME280;33579;50.058;18.130;2023-03-25T05:05:32;98291.81;;;9.84;100.00
47815;BME280;33579;50.058;18.130;2023-03-25T05:06:35;98289.00;;;9.86;100.00
47815;BME280;33579;50.058;18.130;2023-03-25T05:07:37;98284.38;;;9.80;100.00
47815;BME280;33579;50.058;18.130;2023-03-25T05:08:38;98288.13;;;9.77;100.00
47815;BME280;33579;50.058;18.130;2023-03-25T05:09:40;98287.59;;;9.74;100.00
47815;BME280;33579;50.058;18.130;2023-03-25T05:10:42;98288.56;;;9.73;100.00
47815;BME280;33579;50.058;18.130;2023-03-25T05:11:44;98292.19;;;9.72;100.00
47815;BME280;33579;50.058;18.130;2023-03-25T05:12:46;98290.97;;;9.66;100.00
47815;BME280;33579;50.058;18.130;2023-03-25T05:13:48;98284.59;;;9.68;100.00
47815;BME280;33579;50.058;18.130;2023-03-25T05:14:50;98290.00;;;9.67;100.00
47815;BME280;33579;50.058;18.130;2023-03-25T05:15:51;98297.06;;;9.66;100.00
47815;BME280;33579;50.058;18.130;2023-03-25T05:16:53;98294.75;;;9.63;100.00
47815;BME280;33579;50.058;18.130;2023-03-25T05:17:55;98298.03;;;9.65;100.00
47815;BME280;33579;50.058;18.130;2023-03-25T05:18:57;98294.22;;;9.60;100.00
47815;BME280;33579;50.058;18.130;2023-03-25T05:19:58;98303.06;;;9.59;100.00
47815;BME280;33579;50.058;18.130;2023-03-25T05:21:00;98294.34;;;9.58;100.00
47815;BME280;33579;50.058;18.130;2023-03-25T05:22:01;98301.47;;;9.66;100.00
47815;BME280;33579;50.058;18.130;2023-03-25T05:23:03;98294.44;;;9.66;100.00
47815;BME280;33579;50.058;18.130;2023-03-25T05:24:06;98307.56;;;9.66;100.00
47815;BME280;33579;50.058;18.130;2023-03-25T05:25:09;98299.31;;;9.61;100.00
47815;BME280;33579;50.058;18.130;2023-03-25T05:26:11;98310.84;;;9.50;100.00
47815;BME280;33579;50.058;18.130;2023-03-25T05:27:13;98305.50;;;9.42;100.00
47815;BME280;33579;50.058;18.130;2023-03-25T05:28:15;98303.88;;;9.41;100.00
47815;BME280;33579;50.058;18.130;2023-03-25T05:29:17;98304.03;;;9.39;100.00
47815;BME280;33579;50.058;18.130;2023-03-25T05:30:18;98301.69;;;9.36;100.00
47815;BME280;33579;50.058;18.130;2023-03-25T05:31:20;98300.44;;;9.40;100.00
47815;BME280;33579;50.058;18.130;2023-03-25T05:32:22;98302.44;;;9.47;100.00
47815;BME280;33579;50.058;18.130;2023-03-25T05:33:23;98302.88;;;9.42;100.00
47815;BME280;33579;50.058;18.130;2023-03-25T05:34:25;98304.53;;;9.43;100.00
47815;BME280;33579;50.058;18.130;2023-03-25T05:35:27;98303.88;;;9.41;100.00
47815;BME280;33579;50.058;18.130;2023-03-25T05:36:29;98307.34;;;9.41;100.00
47815;BME280;33579;50.058;18.130;2023-03-25T05:37:30;98307.47;;;9.40;100.00
47815;BME280;33579;50.058;18.130;2023-03-25T05:38:32;98303.06;;;9.40;100.00
47815;BME280;33579;50.058;18.130;2023-03-25T05:39:33;98301.53;;;9.38;100.00
47815;BME280;33579;50.058;18.130;2023-03-25T05:40:35;98303.72;;;9.42;100.00
47815;BME280;33579;50.058;18.130;2023-03-25T05:41:37;98306.72;;;9.48;100.00
47815;BME280;33579;50.058;18.130;2023-03-25T05:42:38;98304.63;;;9.51;100.00
47815;BME280;33579;50.058;18.130;2023-03-25T05:43:44;98303.75;;;9.61;100.00
47815;BME280;33579;50.058;18.130;2023-03-25T05:44:46;98308.69;;;9.64;100.00
47815;BME280;33579;50.058;18.130;2023-03-25T05:45:48;98297.88;;;9.67;100.00
47815;BME280;33579;50.058;18.130;2023-03-25T05:46:49;98306.81;;;9.74;100.00
47815;BME280;33579;50.058;18.130;2023-03-25T05:47:51;98308.03;;;9.80;100.00
47815;BME280;33579;50.058;18.130;2023-03-25T05:48:53;98317.91;;;9.86;100.00
47815;BME280;33579;50.058;18.130;2023-03-25T05:49:54;98319.28;;;9.90;100.00
47815;BME280;33579;50.058;18.130;2023-03-25T05:50:56;98316.13;;;9.87;100.00
47815;BME280;33579;50.058;18.130;2023-03-25T05:51:57;98311.53;;;9.89;100.00
47815;BME280;33579;50.058;18.130;2023-03-25T05:52:59;98307.25;;;9.88;100.00
47815;BME280;33579;50.058;18.130;2023-03-25T05:54:01;98313.72;;;9.93;100.00
47815;BME280;33579;50.058;18.130;2023-03-25T05:55:03;98316.41;;;10.02;100.00
47815;BME280;33579;50.058;18.130;2023-03-25T05:56:05;98313.34;;;10.06;100.00
47815;BME280;33579;50.058;18.130;2023-03-25T05:57:07;98311.88;;;10.12;100.00
47815;BME280;33579;50.058;18.130;2023-03-25T05:58:09;98304.47;;;10.07;100.00
47815;BME280;33579;50.058;18.130;2023-03-25T05:59:11;98315.50;;;10.11;100.00
47815;BME280;33579;50.058;18.130;2023-03-25T06:00:13;98316.84;;;10.15;100.00
47815;BME280;33579;50.058;18.130;2023-03-25T06:01:17;98312.25;;;10.17;100.00
47815;BME280;33579;50.058;18.130;2023-03-25T06:02:34;98313.25;;;10.16;100.00
47815;BME280;33579;50.058;18.130;2023-03-25T06:03:35;98314.28;;;10.05;100.00
47815;BME280;33579;50.058;18.130;2023-03-25T06:04:37;98317.13;;;10.12;100.00
47815;BME280;33579;50.058;18.130;2023-03-25T06:05:39;98319.47;;;10.15;100.00
47815;BME280;33579;50.058;18.130;2023-03-25T06:06:41;98317.38;;;10.19;100.00
47815;BME280;33579;50.058;18.130;2023-03-25T06:07:44;98318.31;;;10.18;100.00
47815;BME280;33579;50.058;18.130;2023-03-25T06:08:49;98320.69;;;10.03;100.00
47815;BME280;33579;50.058;18.130;2023-03-25T06:09:51;98322.13;;;9.97;100.00
47815;BME280;33579;50.058;18.130;2023-03-25T06:10:54;98318.34;;;9.99;100.00